createdAt,value
2022-08-09T00:00:06.142Z,52.92
2022-08-09T00:04:00.635Z,52.46
2022-08-09T00:06:15.554Z,53.00
2022-08-09T00:08:53.374Z,53.27
2022-08-09T00:11:58.690Z,53.76
2022-08-09T00:14:31.149Z,53.52
2022-08-09T00:18:04.270Z,53.26
2022-08-09T00:20:05.142Z,53.32
2022-08-09T00:22:37.063Z,52.93
2022-08-09T00:25:14.301Z,52.73
2022-08-09T00:27:56.469Z,52.14
2022-08-09T00:30:30.539Z,52.19
2022-08-09T00:33:05.595Z,52.79
2022-08-09T00:35:42.859Z,53.27
2022-08-09T00:38:16.150Z,53.18
2022-08-09T00:40:54.923Z,52.69
2022-08-09T00:44:16.910Z,53.63
2022-08-09T00:46:45.293Z,53.93
2022-08-09T00:49:15.372Z,53.88
2022-08-09T00:51:54.446Z,53.79
2022-08-09T00:54:34.969Z,53.84
2022-08-09T00:57:11.059Z,54.01
2022-08-09T00:59:47.112Z,53.65
2022-08-09T01:02:29.270Z,53.69
2022-08-09T01:05:14.202Z,53.46
2022-08-09T01:08:02.691Z,54.33
2022-08-09T01:10:43.466Z,54.49
2022-08-09T01:13:53.208Z,54.47
2022-08-09T01:16:28.739Z,54.79
2022-08-09T01:19:16.903Z,54.75
2022-08-09T01:22:16.296Z,54.47
2022-08-09T01:25:00.904Z,55.01
2022-08-09T01:27:37.243Z,54.90
2022-08-09T01:30:28.657Z,54.72
2022-08-09T01:33:10.067Z,54.83
2022-08-09T01:35:52.216Z,56.78
2022-08-09T01:38:28.709Z,56.37
2022-08-09T01:41:06.155Z,55.42
2022-08-09T01:43:50.640Z,55.31
2022-08-09T01:46:31.658Z,55.38
2022-08-09T01:49:10.494Z,55.82
2022-08-09T01:51:54.464Z,56.00
2022-08-09T01:54:33.904Z,56.72
2022-08-09T01:57:16.548Z,57.04
2022-08-09T01:59:53.289Z,57.39
2022-08-09T02:02:36.292Z,57.18
2022-08-09T02:05:16.122Z,57.61
2022-08-09T02:08:40.414Z,57.30
2022-08-09T02:10:50.958Z,57.59
2022-08-09T02:13:40.177Z,57.88
2022-08-09T02:16:15.977Z,57.68
2022-08-09T02:18:48.479Z,57.21
2022-08-09T02:21:24.150Z,57.79
2022-08-09T02:24:04.714Z,58.03
2022-08-09T02:26:39.130Z,58.06
2022-08-09T02:29:21.825Z,57.39
2022-08-09T02:32:01.356Z,57.81
2022-08-09T02:34:41.704Z,58.08
2022-08-09T02:37:31.784Z,57.98
2022-08-09T02:40:11.045Z,57.85
2022-08-09T02:42:51.082Z,58.50
2022-08-09T02:45:30.054Z,59.07
2022-08-09T02:48:12.313Z,59.14
2022-08-09T02:51:03.359Z,59.08
2022-08-09T02:54:00.507Z,59.10
2022-08-09T02:56:36.514Z,59.17
2022-08-09T02:59:12.842Z,58.71
2022-08-09T03:02:06.234Z,58.97
2022-08-09T03:04:40.874Z,59.19
2022-08-09T03:07:14.667Z,59.47
2022-08-09T03:09:54.390Z,58.95
2022-08-09T03:12:30.493Z,59.21
2022-08-09T03:15:04.816Z,58.87
2022-08-09T03:17:38.415Z,58.48
2022-08-09T03:20:11.160Z,57.78
2022-08-09T03:22:52.622Z,57.76
2022-08-09T03:25:58.537Z,57.16
2022-08-09T03:28:25.776Z,56.16
2022-08-09T03:30:59.365Z,56.45
2022-08-09T03:33:54.395Z,56.43
2022-08-09T03:36:29.415Z,56.48
2022-08-09T03:39:02.854Z,56.58
2022-08-09T03:41:45.754Z,56.18
2022-08-09T03:44:21.699Z,55.83
2022-08-09T03:46:59.651Z,55.59
2022-08-09T03:49:35.801Z,55.70
2022-08-09T03:52:09.172Z,56.08
2022-08-09T03:54:45.138Z,56.45
2022-08-09T03:57:20.453Z,56.65
2022-08-09T04:00:00.623Z,56.85
2022-08-09T04:02:36.037Z,56.57
2022-08-09T04:05:26.979Z,55.95
2022-08-09T04:07:59.839Z,56.79
2022-08-09T04:10:33.232Z,55.97
2022-08-09T04:13:13.575Z,56.27
2022-08-09T04:16:18.667Z,56.26
2022-08-09T04:18:45.888Z,56.38
2022-08-09T04:21:19.056Z,56.24
2022-08-09T04:23:53.634Z,56.56
2022-08-09T04:26:37.717Z,56.30
2022-08-09T04:29:15.667Z,56.78
2022-08-09T04:31:48.112Z,57.29
2022-08-09T04:34:30.772Z,57.54
2022-08-09T04:37:04.352Z,57.21
2022-08-09T04:39:40.885Z,57.02
2022-08-09T04:42:15.920Z,58.20
2022-08-09T04:44:50.413Z,58.89
2022-08-09T04:47:25.536Z,58.45
2022-08-09T04:50:05.430Z,57.79
2022-08-09T04:52:42.191Z,57.61
2022-08-09T04:55:15.520Z,57.57
2022-08-09T04:57:59.464Z,57.37
2022-08-09T05:00:41.009Z,58.15
2022-08-09T05:03:41.108Z,57.32
2022-08-09T05:06:08.150Z,56.99
2022-08-09T05:08:43.891Z,56.77
2022-08-09T05:11:19.995Z,56.67
2022-08-09T05:13:55.039Z,56.49
2022-08-09T05:16:31.579Z,55.65
2022-08-09T05:19:04.239Z,56.03
2022-08-09T05:21:47.183Z,56.24
2022-08-09T05:24:27.534Z,57.68
2022-08-09T05:26:59.598Z,58.79
2022-08-09T05:29:35.519Z,58.23
2022-08-09T05:32:08.485Z,57.90
2022-08-09T05:34:42.900Z,57.83
2022-08-09T05:37:18.292Z,57.70
2022-08-09T05:39:50.586Z,57.38
2022-08-09T05:42:28.045Z,57.31
2022-08-09T05:45:06.081Z,57.62
2022-08-09T05:47:45.511Z,57.35
2022-08-09T05:50:50.476Z,57.24
2022-08-09T05:53:21.630Z,56.25
2022-08-09T05:56:04.114Z,56.32
2022-08-09T05:58:37.025Z,56.06
2022-08-09T06:01:09.679Z,55.99
2022-08-09T06:03:58.175Z,55.72
2022-08-09T06:06:31.096Z,55.55
2022-08-09T06:09:09.893Z,55.91
2022-08-09T06:11:57.774Z,56.26
2022-08-09T06:14:30.108Z,55.99
2022-08-09T06:17:09.064Z,55.87
2022-08-09T06:19:42.087Z,56.00
2022-08-09T06:22:15.740Z,55.75
2022-08-09T06:24:47.715Z,55.73
2022-08-09T06:27:21.003Z,55.60
2022-08-09T06:30:04.573Z,55.83
2022-08-09T06:33:00.608Z,55.20
2022-08-09T06:35:35.798Z,55.30
2022-08-09T06:38:36.336Z,55.34
2022-08-09T06:41:18.709Z,55.34
2022-08-09T06:43:53.100Z,55.43
2022-08-09T06:46:40.347Z,55.40
2022-08-09T06:49:16.214Z,55.03
2022-08-09T06:52:01.245Z,55.39
2022-08-09T06:54:33.120Z,55.52
2022-08-09T06:57:04.915Z,55.78
2022-08-09T07:00:57.405Z,55.77
2022-08-09T07:02:32.415Z,55.62
2022-08-09T07:05:06.251Z,55.81
2022-08-09T07:08:00.670Z,55.83
2022-08-09T07:10:32.501Z,55.59
2022-08-09T07:13:27.586Z,55.76
2022-08-09T07:16:42.655Z,55.74
2022-08-09T07:18:50.174Z,55.66
2022-08-09T07:21:22.036Z,55.33
2022-08-09T07:23:58.158Z,55.39
2022-08-09T07:26:30.326Z,55.41
2022-08-09T07:29:12.214Z,55.18
2022-08-09T07:31:48.097Z,55.05
2022-08-09T07:34:20.535Z,55.09
2022-08-09T07:36:53.515Z,54.47
2022-08-09T07:39:41.084Z,54.45
2022-08-09T07:42:14.316Z,53.82
2022-08-09T07:44:51.574Z,53.85
2022-08-09T07:47:25.185Z,54.08
2022-08-09T07:50:05.314Z,53.67
2022-08-09T07:52:41.402Z,53.32
2022-08-09T07:55:15.401Z,53.50
2022-08-09T07:57:49.021Z,52.94
2022-08-09T08:00:35.983Z,52.53
2022-08-09T08:03:09.833Z,50.93
2022-08-09T08:05:57.559Z,50.60
2022-08-09T08:09:00.596Z,50.41
2022-08-09T08:12:10.577Z,49.61
2022-08-09T08:14:14.529Z,48.76
2022-08-09T08:17:00.553Z,49.09
2022-08-09T08:19:32.893Z,49.03
2022-08-09T08:22:05.609Z,48.66
2022-08-09T08:24:40.038Z,48.91
2022-08-09T08:27:17.078Z,46.34
2022-08-09T08:29:52.280Z,45.40
2022-08-09T08:32:29.458Z,45.44
2022-08-09T08:35:02.758Z,45.49
2022-08-09T08:37:41.315Z,45.60
2022-08-09T08:40:26.918Z,45.63
2022-08-09T08:43:02.014Z,45.46
2022-08-09T08:45:43.239Z,46.10
2022-08-09T08:48:29.154Z,46.24
2022-08-09T08:51:04.185Z,46.59
2022-08-09T08:53:37.414Z,46.03
2022-08-09T08:56:13.650Z,46.40
2022-08-09T08:58:57.170Z,45.93
2022-08-09T09:01:44.931Z,47.14
2022-08-09T09:04:26.666Z,46.71
2022-08-09T09:07:02.448Z,45.39
2022-08-09T09:10:01.806Z,46.30
2022-08-09T09:12:34.157Z,45.94
2022-08-09T09:15:09.279Z,43.64
2022-08-09T09:17:48.960Z,44.37
2022-08-09T09:20:25.844Z,42.97
2022-08-09T09:23:01.855Z,43.52
2022-08-09T09:26:04.056Z,42.89
2022-08-09T09:29:02.924Z,43.56
2022-08-09T09:32:04.065Z,42.40
2022-08-09T09:34:19.514Z,41.37
2022-08-09T09:36:53.917Z,41.31
2022-08-09T09:39:55.177Z,42.11
2022-08-09T09:42:36.341Z,42.86
2022-08-09T09:45:10.658Z,42.25
2022-08-09T09:47:56.667Z,41.73
2022-08-09T09:50:49.604Z,42.35
2022-08-09T09:53:43.827Z,41.40
2022-08-09T09:56:19.675Z,41.27
2022-08-09T09:59:03.566Z,39.83
2022-08-09T10:01:38.225Z,40.38
2022-08-09T10:04:22.574Z,39.54
2022-08-09T10:07:03.657Z,40.71
2022-08-09T10:09:54.825Z,40.68
2022-08-09T10:12:29.570Z,40.68
2022-08-09T10:15:17.531Z,40.49
2022-08-09T10:18:14.033Z,39.54
2022-08-09T10:20:48.754Z,39.39
2022-08-09T10:23:24.288Z,39.03
2022-08-09T10:26:07.497Z,38.42
2022-08-09T10:28:48.736Z,37.90
2022-08-09T10:34:33.474Z,37.40
2022-08-09T10:37:09.678Z,37.07
2022-08-09T10:39:49.439Z,36.90
2022-08-09T10:42:26.904Z,36.30
2022-08-09T10:45:10.719Z,36.34
2022-08-09T10:48:19.248Z,34.70
2022-08-09T10:51:12.158Z,35.13
2022-08-09T10:54:04.883Z,35.36
2022-08-09T10:56:39.099Z,35.18
2022-08-09T10:59:31.762Z,34.82
2022-08-09T11:03:15.572Z,34.59
2022-08-09T11:05:31.110Z,33.85
2022-08-09T11:08:34.034Z,33.02
2022-08-09T11:11:15.665Z,32.37
2022-08-09T11:13:53.693Z,32.16
2022-08-09T11:16:37.345Z,32.80
2022-08-09T11:19:11.397Z,32.99
2022-08-09T11:22:05.300Z,33.02
2022-08-09T11:25:10.289Z,33.99
2022-08-09T11:28:04.069Z,35.21
2022-08-09T11:30:37.811Z,35.61
2022-08-09T11:33:26.405Z,36.38
2022-08-09T11:36:00.302Z,36.74
2022-08-09T11:38:34.965Z,36.92
2022-08-09T11:41:37.972Z,36.64
2022-08-09T11:44:13.553Z,36.62
2022-08-09T11:46:57.000Z,36.90
2022-08-09T11:50:55.698Z,37.46
2022-08-09T11:53:58.093Z,36.81
2022-08-09T11:56:41.989Z,36.32
2022-08-09T11:59:33.550Z,35.72
2022-08-09T12:02:17.205Z,34.55
2022-08-09T12:04:58.196Z,34.65
2022-08-09T12:07:41.337Z,33.96
2022-08-09T12:10:39.590Z,34.21
2022-08-09T12:14:09.720Z,33.76
2022-08-09T12:16:03.595Z,33.67
2022-08-09T12:18:37.509Z,33.29
2022-08-09T12:21:28.655Z,32.77
2022-08-09T12:24:09.625Z,32.57
2022-08-09T12:26:44.663Z,32.22
2022-08-09T12:29:33.100Z,32.11
2022-08-09T12:32:11.585Z,31.65
2022-08-09T12:34:44.813Z,32.43
2022-08-09T12:37:23.832Z,32.10
2022-08-09T12:40:06.378Z,32.30
2022-08-09T12:42:44.239Z,31.79
2022-08-09T12:45:34.266Z,31.31
2022-08-09T12:48:11.051Z,31.46
2022-08-09T12:51:03.792Z,31.23
2022-08-09T12:53:40.952Z,31.56
2022-08-09T12:56:44.258Z,31.61
2022-08-09T12:59:14.347Z,31.70
2022-08-09T13:01:50.317Z,31.86
2022-08-09T13:04:37.580Z,31.76
2022-08-09T13:07:16.791Z,31.90
2022-08-09T13:10:05.102Z,32.27
2022-08-09T13:13:09.743Z,32.76
2022-08-09T13:15:58.616Z,33.51
2022-08-09T13:18:46.888Z,33.14
2022-08-09T13:22:36.718Z,32.94
2022-08-09T13:24:52.672Z,33.42
2022-08-09T13:27:24.282Z,32.90
2022-08-09T13:30:51.291Z,32.39
2022-08-09T13:32:56.779Z,32.87
2022-08-09T13:35:34.234Z,32.57
2022-08-09T13:38:17.807Z,32.38
2022-08-09T13:41:55.682Z,32.63
2022-08-09T13:43:53.855Z,32.82
2022-08-09T13:47:16.103Z,32.44
2022-08-09T13:49:18.330Z,32.30
2022-08-09T13:52:00.535Z,32.08
2022-08-09T13:54:33.108Z,31.85
2022-08-09T13:57:06.415Z,32.45
2022-08-09T13:59:42.056Z,32.07
2022-08-09T14:02:16.780Z,32.15
2022-08-09T14:04:59.665Z,31.32
2022-08-09T14:07:42.183Z,31.37
2022-08-09T14:10:17.287Z,31.69
2022-08-09T14:13:00.999Z,31.49
2022-08-09T14:16:08.923Z,31.10
2022-08-09T14:18:32.021Z,30.90
2022-08-09T14:21:04.077Z,30.53
2022-08-09T14:23:40.299Z,30.55
2022-08-09T14:26:18.796Z,30.07
2022-08-09T14:28:50.664Z,29.68
2022-08-09T14:31:23.700Z,30.07
2022-08-09T14:34:17.661Z,30.37
2022-08-09T14:37:06.075Z,30.46
2022-08-09T14:39:46.904Z,30.29
2022-08-09T14:42:32.026Z,31.00
2022-08-09T14:47:00.748Z,31.10
2022-08-09T14:48:03.523Z,31.67
2022-08-09T14:50:37.354Z,31.76
2022-08-09T14:53:13.729Z,32.27
2022-08-09T14:55:49.934Z,31.87
2022-08-09T14:58:22.415Z,32.08
2022-08-09T15:00:53.431Z,32.96
2022-08-09T15:03:29.997Z,32.87
2022-08-09T15:06:03.943Z,33.13
2022-08-09T15:08:36.203Z,33.50
2022-08-09T15:11:09.389Z,33.45
2022-08-09T15:13:56.354Z,33.81
2022-08-09T15:16:35.872Z,33.94
2022-08-09T15:19:18.169Z,34.10
2022-08-09T15:21:58.617Z,33.71
2022-08-09T15:24:33.750Z,34.00
2022-08-09T15:27:05.591Z,34.23
2022-08-09T15:30:58.435Z,34.13
2022-08-09T15:32:30.514Z,34.20
2022-08-09T15:35:18.705Z,34.08
2022-08-09T15:37:57.157Z,34.28
2022-08-09T15:40:44.754Z,34.50
2022-08-09T15:43:18.094Z,34.48
2022-08-09T15:46:07.528Z,34.58
2022-08-09T15:48:41.580Z,34.40
2022-08-09T15:52:04.014Z,34.45
2022-08-09T15:54:33.450Z,33.98
2022-08-09T15:57:14.440Z,34.10
2022-08-09T15:59:52.027Z,34.01
2022-08-09T16:02:27.058Z,33.99
2022-08-09T16:04:59.231Z,33.77
2022-08-09T16:07:38.930Z,34.22
2022-08-09T16:10:38.458Z,34.48
2022-08-09T16:13:05.122Z,35.42
2022-08-09T16:16:11.023Z,35.32
2022-08-09T16:18:49.939Z,34.87
2022-08-09T16:21:31.606Z,34.90
2022-08-09T16:24:19.955Z,35.57
2022-08-09T16:27:02.164Z,36.76
2022-08-09T16:29:49.996Z,37.63
2022-08-09T16:32:49.640Z,38.64
2022-08-09T16:35:55.744Z,39.56
2022-08-09T16:38:18.735Z,39.86
2022-08-09T16:40:50.744Z,40.41
2022-08-09T16:43:22.736Z,40.55
2022-08-09T16:45:55.593Z,40.77
2022-08-09T16:48:39.161Z,40.71
2022-08-09T16:51:20.034Z,41.00
2022-08-09T16:54:25.209Z,41.16
2022-08-09T16:56:49.339Z,41.70
2022-08-09T16:59:22.233Z,41.64
2022-08-09T17:01:54.119Z,42.08
2022-08-09T17:04:30.021Z,42.15
2022-08-09T17:08:40.760Z,42.35
2022-08-09T17:10:01.852Z,42.65
2022-08-09T17:12:36.720Z,43.00
2022-08-09T17:15:31.463Z,43.15
2022-08-09T17:18:02.542Z,43.78
2022-08-09T17:20:39.047Z,44.15
2022-08-09T17:23:16.097Z,44.26
2022-08-09T17:25:52.797Z,44.37
2022-08-09T17:28:25.028Z,45.74
2022-08-09T17:30:58.838Z,45.13
2022-08-09T17:33:32.267Z,44.46
2022-08-09T17:36:14.695Z,46.94
2022-08-09T17:38:52.747Z,47.85
2022-08-09T17:41:38.888Z,48.19
2022-08-09T17:44:42.291Z,49.46
2022-08-09T17:47:04.058Z,49.83
2022-08-09T17:49:36.454Z,49.87
2022-08-09T17:52:22.724Z,52.11
2022-08-09T17:54:55.632Z,52.36
2022-08-09T17:58:04.007Z,51.32
2022-08-09T18:00:21.263Z,49.16
2022-08-09T18:03:13.089Z,48.96
2022-08-09T18:05:45.017Z,48.92
2022-08-09T18:08:27.387Z,47.83
2022-08-09T18:11:02.210Z,48.28
2022-08-09T18:13:39.444Z,47.25
2022-08-09T18:16:16.406Z,48.88
2022-08-09T18:18:49.111Z,48.39
2022-08-09T18:21:23.721Z,48.46
2022-08-09T18:24:10.661Z,48.70
2022-08-09T18:26:46.859Z,48.36
2022-08-09T18:30:38.509Z,47.64
2022-08-09T18:32:12.782Z,48.55
2022-08-09T18:34:44.873Z,48.20
2022-08-09T18:37:49.153Z,48.25
2022-08-09T18:40:10.277Z,48.37
2022-08-09T18:42:46.732Z,49.35
2022-08-09T18:45:21.469Z,49.28
2022-08-09T18:47:53.798Z,49.24
2022-08-09T18:50:26.458Z,48.77
2022-08-09T18:53:06.402Z,49.70
2022-08-09T18:55:57.004Z,49.66
2022-08-09T18:58:38.970Z,49.19
2022-08-09T19:01:11.050Z,50.10
2022-08-09T19:03:54.649Z,49.86
2022-08-09T19:06:38.577Z,50.05
2022-08-09T19:09:13.462Z,50.00
2022-08-09T19:11:52.489Z,50.00
2022-08-09T19:14:29.167Z,50.22
2022-08-09T19:17:01.387Z,50.29
2022-08-09T19:19:37.035Z,50.05
2022-08-09T19:22:15.234Z,50.52
2022-08-09T19:25:11.918Z,50.51
2022-08-09T19:27:40.746Z,50.49
2022-08-09T19:30:22.608Z,50.69
2022-08-09T19:33:00.728Z,50.75
2022-08-09T19:35:57.199Z,50.79
2022-08-09T19:38:25.034Z,50.53
2022-08-09T19:41:00.476Z,50.69
2022-08-09T19:44:00.735Z,50.87
2022-08-09T19:46:34.960Z,51.14
2022-08-09T19:50:08.546Z,51.52
2022-08-09T19:52:00.779Z,51.92
2022-08-09T19:54:31.902Z,52.40
2022-08-09T19:57:04.384Z,52.75
2022-08-09T20:00:02.420Z,53.18
2022-08-09T20:04:26.332Z,53.57
2022-08-09T20:05:41.360Z,53.79
2022-08-09T20:08:24.981Z,53.59
2022-08-09T20:11:05.811Z,53.83
2022-08-09T20:13:36.973Z,53.60
2022-08-09T20:16:37.862Z,54.10
2022-08-09T20:19:42.209Z,54.11
2022-08-09T20:21:56.932Z,54.40
2022-08-09T20:24:34.122Z,54.94
2022-08-09T20:27:08.192Z,55.15
2022-08-09T20:29:41.444Z,54.76
2022-08-09T20:32:29.085Z,54.95
2022-08-09T20:35:05.801Z,55.09
2022-08-09T20:38:23.963Z,55.25
2022-08-09T20:40:31.638Z,55.48
2022-08-09T20:43:18.446Z,55.73
2022-08-09T20:46:00.839Z,56.04
2022-08-09T20:48:49.061Z,56.69
2022-08-09T20:51:26.821Z,56.38
2022-08-09T20:54:00.137Z,56.01
2022-08-09T20:56:35.546Z,55.91
2022-08-09T20:59:07.261Z,56.21
2022-08-09T21:01:49.818Z,56.05
2022-08-09T21:05:52.591Z,56.30
2022-08-09T21:07:16.530Z,56.22
2022-08-09T21:09:56.584Z,56.82
2022-08-09T21:12:32.955Z,56.46
2022-08-09T21:15:12.709Z,56.11
2022-08-09T21:18:22.018Z,56.65
2022-08-09T21:20:36.759Z,57.70
2022-08-09T21:23:13.113Z,57.67
2022-08-09T21:25:59.744Z,58.46
2022-08-09T21:28:36.105Z,57.87
2022-08-09T21:31:17.033Z,58.31
2022-08-09T21:33:53.133Z,58.21
2022-08-09T21:36:30.597Z,58.63
2022-08-09T21:39:04.221Z,58.19
2022-08-09T21:42:03.720Z,58.61
2022-08-09T21:44:34.138Z,59.38
2022-08-09T21:47:10.380Z,58.79
2022-08-09T21:49:50.875Z,58.41
2022-08-09T21:52:23.603Z,58.44
2022-08-09T21:54:59.706Z,58.46
2022-08-09T21:57:58.786Z,58.39
2022-08-09T22:00:34.396Z,58.30
2022-08-09T22:03:08.343Z,59.19
2022-08-09T22:05:52.248Z,59.20
2022-08-09T22:08:25.937Z,59.47
2022-08-09T22:11:48.869Z,59.56
2022-08-09T22:13:50.118Z,60.16
2022-08-09T22:16:23.515Z,61.44
2022-08-09T22:18:55.853Z,62.76
2022-08-09T22:21:49.591Z,62.75
2022-08-09T22:24:24.858Z,62.64
2022-08-09T22:26:57.344Z,62.12
2022-08-09T22:29:38.344Z,62.34
2022-08-09T22:32:29.881Z,62.58
2022-08-09T22:35:06.769Z,63.50
2022-08-09T22:38:06.550Z,64.15
2022-08-09T22:40:39.410Z,63.84
2022-08-09T22:44:00.682Z,63.80
2022-08-09T22:48:13.806Z,64.25
2022-08-09T22:49:09.697Z,64.80
2022-08-09T22:51:49.521Z,64.94
2022-08-09T22:54:21.631Z,65.06
2022-08-09T22:56:56.636Z,64.15
2022-08-09T22:59:55.859Z,64.78
2022-08-09T23:02:21.138Z,64.96
2022-08-09T23:04:57.064Z,64.87
2022-08-09T23:08:22.634Z,64.34
2022-08-09T23:10:43.694Z,64.79
2022-08-09T23:13:16.365Z,65.05
2022-08-09T23:16:03.340Z,65.12
2022-08-09T23:18:35.576Z,64.61
2022-08-09T23:21:07.776Z,63.90
2022-08-09T23:23:40.493Z,64.15
2022-08-09T23:26:10.614Z,63.92
2022-08-09T23:28:42.422Z,64.12
2022-08-09T23:31:14.083Z,64.86
2022-08-09T23:33:45.929Z,65.79
2022-08-09T23:36:17.554Z,66.04
2022-08-09T23:38:49.587Z,66.37
2022-08-09T23:41:28.719Z,66.55
2022-08-09T23:44:03.400Z,65.39
2022-08-09T23:46:36.052Z,65.39
2022-08-09T23:49:07.694Z,65.74
2022-08-09T23:51:39.545Z,65.74
2022-08-09T23:54:11.373Z,64.81
2022-08-09T23:56:54.778Z,65.46
2022-08-09T23:59:50.280Z,65.84
